Time;durP1;ratioP1;P1;durP2;ratioP2;P2;SDS_P1;SDS_P2;PMS_P1;PMS_P2;Temp;Humidity;BMP_temperature;BMP_pressure;BME280_temperature;BME280_humidity;BME280_pressure;Samples;Min_cycle;Max_cycle;Signal;HPM_P1;HPM_P2
2023/10/03 00:00:28;;;;;;;21.75;10.02;;;;;;;23.71;62.22;100987.53;5029463;28;20032;-44
2023/10/03 00:02:55;;;;;;;19.38;10.05;;;;;;;23.56;62.82;100990.78;5029206;28;20124;-45
2023/10/03 00:05:22;;;;;;;23.80;10.40;;;;;;;23.62;62.39;100990.53;5029303;28;20064;-44
2023/10/03 00:07:51;;;;;;;21.70;10.40;;;;;;;23.67;61.64;100985.91;5029156;28;20431;-45
2023/10/03 00:10:17;;;;;;;24.88;10.27;;;;;;;23.65;62.13;100993.09;5029752;28;20033;-43
2023/10/03 00:12:43;;;;;;;22.33;10.07;;;;;;;23.64;62.14;100991.38;5030220;28;20037;-44
2023/10/03 00:15:12;;;;;;;22.77;10.27;;;;;;;23.62;61.77;100989.69;5029605;28;20042;-50
2023/10/03 00:17:37;;;;;;;20.08;9.68;;;;;;;23.64;61.35;100980.72;5029504;28;20129;-46
2023/10/03 00:20:07;;;;;;;23.00;9.93;;;;;;;23.58;61.80;100974.75;5028998;28;20471;-44
2023/10/03 00:22:34;;;;;;;22.92;10.32;;;;;;;23.43;62.28;100974.38;5029442;28;20151;-44
2023/10/03 00:25:00;;;;;;;21.70;10.23;;;;;;;23.47;62.32;100961.00;5032840;28;20125;-45
2023/10/03 00:27:26;;;;;;;21.40;9.82;;;;;;;23.51;61.91;100954.63;5030285;28;20112;-44
2023/10/03 00:29:52;;;;;;;26.00;10.60;;;;;;;23.36;62.60;100954.25;5029254;28;20449;-45
2023/10/03 00:32:18;;;;;;;23.17;10.07;;;;;;;23.36;62.28;100953.41;5029324;28;20411;-47
2023/10/03 00:34:45;;;;;;;22.60;10.18;;;;;;;23.57;61.60;100944.63;5030060;28;20512;-44
2023/10/03 00:37:11;;;;;;;23.63;9.95;;;;;;;23.67;61.04;100939.78;5029953;28;20030;-41
2023/10/03 00:39:36;;;;;;;24.00;9.88;;;;;;;23.73;60.75;100934.22;5029883;28;20766;-44
2023/10/03 00:42:05;;;;;;;24.00;10.35;;;;;;;23.73;60.93;100934.22;5029293;28;20084;-45
2023/10/03 00:44:30;;;;;;;19.98;10.10;;;;;;;23.60;61.09;100922.34;5029621;28;20037;-44
2023/10/03 00:46:56;;;;;;;24.50;10.68;;;;;;;23.58;61.13;100917.09;5028410;28;20380;-47
2023/10/03 00:49:24;;;;;;;22.25;10.43;;;;;;;23.74;60.75;100907.53;5029248;28;20518;-44
2023/10/03 00:51:51;;;;;;;24.02;10.48;;;;;;;23.76;60.55;100912.81;5031213;28;20454;-43
2023/10/03 00:54:17;;;;;;;22.42;10.32;;;;;;;23.90;59.96;100907.81;5032719;28;20365;-46
2023/10/03 00:56:43;;;;;;;24.13;10.07;;;;;;;23.61;61.03;100900.09;5033854;28;20037;-44
2023/10/03 00:59:10;;;;;;;23.10;10.43;;;;;;;23.60;61.42;100893.06;5032660;28;20034;-45
2023/10/03 01:01:36;;;;;;;25.58;10.70;;;;;;;23.52;61.37;100895.16;5034255;28;20033;-42
2023/10/03 01:04:16;;;;;;;20.55;10.05;;;;;;;23.65;60.92;100883.09;5033449;28;20048;-44
2023/10/03 01:06:41;;;;;;;24.88;10.45;;;;;;;23.65;60.98;100873.31;5033458;28;20048;-45
2023/10/03 01:09:14;;;;;;;25.70;10.55;;;;;;;23.84;60.24;100866.31;5032804;28;25605;-45
2023/10/03 01:11:40;;;;;;;22.90;10.48;;;;;;;23.52;61.50;100860.56;5032543;28;20045;-45
2023/10/03 01:14:06;;;;;;;20.65;9.55;;;;;;;23.66;60.96;100858.22;5032283;28;20087;-44
2023/10/03 01:16:33;;;;;;;21.73;10.05;;;;;;;23.49;61.80;100853.56;5032051;28;20033;-46
2023/10/03 01:19:07;;;;;;;20.85;9.52;;;;;;;23.67;60.98;100850.16;5031942;28;20035;-44
2023/10/03 01:21:34;;;;;;;23.40;9.80;;;;;;;23.52;61.34;100872.09;5031983;28;20104;-44
2023/10/03 01:24:00;;;;;;;23.00;9.85;;;;;;;23.57;61.56;100861.25;5031499;28;20116;-44
2023/10/03 01:26:25;;;;;;;22.77;9.75;;;;;;;23.40;61.84;100868.09;5031928;28;20466;-46
2023/10/03 01:28:51;;;;;;;23.15;9.60;;;;;;;23.60;61.55;100861.13;5031462;28;20045;-45
2023/10/03 01:31:17;;;;;;;23.20;10.10;;;;;;;23.73;60.64;100865.88;5031574;28;20088;-44
2023/10/03 01:33:42;;;;;;;20.83;10.23;;;;;;;23.65;61.27;100862.69;5031797;28;20033;-46
2023/10/03 01:36:08;;;;;;;23.88;9.48;;;;;;;23.79;60.66;100862.09;5031058;28;20037;-44
2023/10/03 01:38:33;;;;;;;23.00;10.13;;;;;;;23.84;60.25;100861.00;5031422;28;20029;-45
2023/10/03 01:41:00;;;;;;;22.05;9.52;;;;;;;23.55;61.71;100857.78;5031049;28;20038;-46
2023/10/03 01:43:27;;;;;;;20.25;9.00;;;;;;;23.86;60.49;100864.44;5031472;28;20038;-46
2023/10/03 01:45:53;;;;;;;25.50;10.18;;;;;;;23.79;61.04;100865.63;5030852;28;20404;-45
2023/10/03 01:48:19;;;;;;;23.35;9.82;;;;;;;23.76;60.74;100863.09;5031315;28;20040;-44
2023/10/03 01:50:45;;;;;;;24.58;9.68;;;;;;;23.85;60.34;100864.50;5031206;28;20029;-44
2023/10/03 01:53:11;;;;;;;21.13;9.02;;;;;;;23.84;60.58;100855.69;5030614;28;20056;-48
2023/10/03 01:55:37;;;;;;;21.63;9.40;;;;;;;23.78;61.29;100844.41;5031588;28;20105;-49
2023/10/03 01:58:03;;;;;;;17.92;8.82;;;;;;;24.14;60.09;100842.00;5030915;28;20117;-51
2023/10/03 02:00:30;;;;;;;18.95;8.70;;;;;;;24.12;60.14;100825.19;5031423;28;20430;-43
2023/10/03 02:02:57;;;;;;;22.58;8.80;;;;;;;24.22;59.74;100819.44;5029743;28;20384;-44
2023/10/03 02:05:25;;;;;;;22.88;9.05;;;;;;;24.22;59.79;100823.88;5031459;28;20125;-44
2023/10/03 02:07:51;;;;;;;21.25;8.80;;;;;;;24.30;59.88;100815.56;5030395;28;20029;-45
2023/10/03 02:10:18;;;;;;;18.38;8.57;;;;;;;24.27;60.25;100812.09;5029998;28;20090;-44
2023/10/03 02:12:55;;;;;;;20.70;8.93;;;;;;;24.22;60.68;100815.91;5031025;28;20103;-46
2023/10/03 02:15:23;;;;;;;20.40;8.57;;;;;;;24.17;60.62;100812.53;5031111;28;20030;-44
2023/10/03 02:17:53;;;;;;;20.17;8.00;;;;;;;24.24;60.92;100806.03;5030854;28;20037;-44
2023/10/03 02:20:25;;;;;;;19.27;8.27;;;;;;;24.27;60.92;100805.06;5031180;28;20483;-44
2023/10/03 02:22:55;;;;;;;17.15;8.32;;;;;;;24.21;61.13;100803.53;5030523;28;20376;-47
2023/10/03 02:25:28;;;;;;;19.98;8.63;;;;;;;24.31;61.01;100804.84;5031266;28;20026;-44
2023/10/03 02:27:55;;;;;;;18.77;8.35;;;;;;;24.26;60.86;100796.19;5030959;28;20120;-43
2023/10/03 02:30:26;;;;;;;17.52;8.07;;;;;;;24.07;61.95;100804.09;5031285;28;20164;-45
2023/10/03 02:32:57;;;;;;;17.88;8.05;;;;;;;23.89;63.27;100807.56;5030459;28;20041;-44
2023/10/03 02:35:24;;;;;;;16.30;7.70;;;;;;;24.15;61.73;100815.25;5029361;28;20035;-45
2023/10/03 02:37:55;;;;;;;16.38;7.82;;;;;;;23.92;62.99;100812.72;5030361;28;20045;-46
2023/10/03 02:40:22;;;;;;;15.35;7.32;;;;;;;23.98;62.83;100816.91;5030527;28;20407;-45
2023/10/03 02:42:51;;;;;;;15.27;7.35;;;;;;;23.73;63.61;100819.75;5030292;28;20504;-44
2023/10/03 02:45:22;;;;;;;16.00;6.63;;;;;;;23.75;63.26;100821.44;5029747;28;20033;-48
2023/10/03 02:47:48;;;;;;;17.50;6.80;;;;;;;23.93;62.45;100817.13;5030293;28;20038;-46
2023/10/03 02:50:15;;;;;;;12.32;6.07;;;;;;;23.64;63.48;100838.78;5029680;28;20037;-44
2023/10/03 02:52:41;;;;;;;14.13;5.50;;;;;;;23.52;63.73;100844.59;5030205;28;20038;-46
2023/10/03 02:55:13;;;;;;;14.68;5.22;;;;;;;23.62;63.75;100840.63;5029720;28;20450;-45
2023/10/03 02:57:39;;;;;;;12.73;5.18;;;;;;;23.72;63.38;100834.03;5030046;28;20041;-44
2023/10/03 03:00:14;;;;;;;14.10;4.80;;;;;;;23.48;65.04;100835.03;5028246;28;20032;-45
2023/10/03 03:02:47;;;;;;;16.90;5.13;;;;;;;23.49;64.91;100837.59;5029898;28;20415;-47
2023/10/03 03:05:16;;;;;;;16.48;5.25;;;;;;;23.05;67.18;100842.00;5029622;28;20033;-43
2023/10/03 03:07:46;;;;;;;17.08;4.80;;;;;;;23.05;68.51;100836.69;5029905;28;20041;-48
2023/10/03 03:10:14;;;;;;;16.00;5.13;;;;;;;23.25;67.77;100842.06;5029760;28;20101;-42
2023/10/03 03:12:43;;;;;;;17.48;5.22;;;;;;;23.55;66.98;100848.00;5030009;28;20491;-44
2023/10/03 03:15:17;;;;;;;20.60;5.50;;;;;;;23.06;69.05;100843.72;5029700;28;20045;-45
2023/10/03 03:17:43;;;;;;;20.58;5.10;;;;;;;23.30;68.35;100839.22;5030404;28;20068;-45
2023/10/03 03:20:21;;;;;;;15.80;4.85;;;;;;;23.03;70.18;100842.06;5029967;28;20080;-44
2023/10/03 03:22:48;;;;;;;14.45;4.68;;;;;;;23.04;70.38;100859.75;5030271;28;20646;-44
2023/10/03 03:25:25;;;;;;;18.77;5.03;;;;;;;23.02;70.46;100866.03;5029756;28;20117;-44
2023/10/03 03:27:56;;;;;;;13.13;4.75;;;;;;;22.94;70.52;100858.34;5029897;28;20042;-43
2023/10/03 03:32:54;;;;;;;16.63;4.63;;;;;;;23.08;69.98;100854.28;5029565;28;20120;-44
2023/10/03 03:35:22;;;;;;;17.88;4.90;;;;;;;22.72;70.67;100853.84;5030473;28;20037;-44
2023/10/03 03:37:48;;;;;;;17.02;4.45;;;;;;;22.95;70.15;100870.72;5029804;28;20140;-44
2023/10/03 03:40:26;;;;;;;11.85;4.30;;;;;;;22.47;71.54;100869.81;5029141;28;20122;-44
2023/10/03 03:42:52;;;;;;;17.08;4.60;;;;;;;23.02;70.07;100869.56;5028908;28;20123;-45
2023/10/03 03:45:21;;;;;;;18.45;4.68;;;;;;;22.92;70.42;100860.22;5029214;28;20116;-46
2023/10/03 03:47:50;;;;;;;15.63;4.43;;;;;;;22.58;71.80;100884.44;5029287;28;20423;-47
2023/10/03 03:50:20;;;;;;;20.10;4.50;;;;;;;22.81;70.74;100862.38;5029109;28;20059;-45
2023/10/03 03:52:45;;;;;;;14.60;4.53;;;;;;;22.80;70.92;100850.03;5029042;28;20059;-46
2023/10/03 03:55:11;;;;;;;16.38;4.40;;;;;;;22.75;71.08;100853.78;5028983;28;20567;-45
2023/10/03 03:57:37;;;;;;;20.20;4.47;;;;;;;22.62;71.65;100856.88;5029497;28;20053;-46
2023/10/03 04:00:12;;;;;;;13.82;4.35;;;;;;;22.74;70.81;100854.72;5028945;28;20037;-47
2023/10/03 04:02:38;;;;;;;16.15;4.45;;;;;;;22.72;71.18;100860.06;5028888;28;20495;-45
2023/10/03 04:05:07;;;;;;;12.15;4.25;;;;;;;22.93;70.22;100856.59;5028892;28;20096;-44
2023/10/03 04:07:33;;;;;;;18.15;4.35;;;;;;;22.77;70.00;100857.25;5029135;28;20135;-44
2023/10/03 04:09:58;;;;;;;15.23;4.25;;;;;;;22.66;70.68;100858.47;5028820;28;20558;-47
2023/10/03 04:12:25;;;;;;;15.85;4.30;;;;;;;22.47;70.62;100860.06;5029050;28;20044;-46
2023/10/03 04:14:50;;;;;;;13.98;4.28;;;;;;;22.74;69.70;100860.03;5028882;28;20030;-44
2023/10/03 04:17:15;;;;;;;13.90;4.10;;;;;;;22.64;69.91;100856.78;5027992;28;20518;-43
2023/10/03 04:19:41;;;;;;;18.10;4.40;;;;;;;22.35;71.04;100859.63;5029314;28;20414;-46
2023/10/03 04:22:06;;;;;;;13.70;4.20;;;;;;;22.73;68.92;100855.63;5028617;28;20033;-43
2023/10/03 04:24:32;;;;;;;11.38;3.88;;;;;;;22.54;69.59;100861.59;5029544;28;20040;-48
2023/10/03 04:26:59;;;;;;;14.70;4.00;;;;;;;22.63;68.75;100861.22;5031934;28;20064;-46
2023/10/03 04:29:24;;;;;;;12.20;3.92;;;;;;;22.50;69.05;100880.34;5033717;28;20037;-47
2023/10/03 04:31:49;;;;;;;11.50;4.28;;;;;;;22.36;69.42;100866.69;5033184;28;20048;-47
2023/10/03 04:34:18;;;;;;;16.20;4.50;;;;;;;22.57;68.48;100873.88;5033359;28;20627;-43
2023/10/03 04:36:45;;;;;;;13.05;4.00;;;;;;;22.68;68.53;100858.44;5032832;28;20120;-46
2023/10/03 04:39:11;;;;;;;10.20;3.65;;;;;;;22.73;66.88;100861.81;5032382;28;20404;-47
2023/10/03 04:41:42;;;;;;;11.23;3.80;;;;;;;22.82;67.21;100857.94;5032805;28;20033;-43
2023/10/03 04:44:08;;;;;;;11.90;3.75;;;;;;;22.45;67.73;100848.63;5032463;28;20033;-45
2023/10/03 04:46:33;;;;;;;11.20;3.70;;;;;;;22.58;67.77;100852.56;5032528;28;20048;-44
2023/10/03 04:48:59;;;;;;;11.10;3.55;;;;;;;22.84;67.24;100864.06;5032281;28;20068;-45
2023/10/03 04:51:24;;;;;;;10.40;3.47;;;;;;;22.61;67.42;100873.72;5032285;28;20095;-49
2023/10/03 04:53:49;;;;;;;10.13;3.00;;;;;;;22.55;67.87;100867.78;5030911;28;20038;-44
2023/10/03 04:56:14;;;;;;;11.27;3.40;;;;;;;22.55;68.22;100891.69;5032391;28;20037;-44
2023/10/03 04:58:41;;;;;;;9.27;3.05;;;;;;;22.45;68.21;100884.94;5032673;28;20136;-43
2023/10/03 05:01:07;;;;;;;10.60;3.20;;;;;;;22.52;68.04;100889.13;5031825;28;20565;-43
2023/10/03 05:03:32;;;;;;;9.75;3.10;;;;;;;22.67;67.16;100889.44;5032195;28;20029;-49
2023/10/03 05:06:01;;;;;;;9.15;3.08;;;;;;;22.41;67.53;100885.97;5031826;28;20049;-44
2023/10/03 05:08:26;;;;;;;9.80;3.28;;;;;;;22.77;66.55;100889.13;5032619;28;20036;-45
2023/10/03 05:10:54;;;;;;;8.23;3.10;;;;;;;22.66;67.60;100892.16;5032173;28;20120;-43
2023/10/03 05:13:19;;;;;;;10.38;3.13;;;;;;;22.36;68.18;100894.13;5032023;28;20095;-44
2023/10/03 05:15:45;;;;;;;8.13;2.88;;;;;;;22.53;67.28;100880.22;5032343;28;20042;-48
2023/10/03 05:18:10;;;;;;;10.38;3.10;;;;;;;22.29;68.99;100897.03;5031631;28;20041;-48
2023/10/03 05:20:37;;;;;;;10.10;3.08;;;;;;;22.48;67.65;100884.84;5031969;28;20037;-44
2023/10/03 05:23:04;;;;;;;7.30;2.78;;;;;;;22.43;67.81;100900.97;5031222;28;20033;-44
2023/10/03 05:25:30;;;;;;;7.50;2.65;;;;;;;22.45;67.64;100896.44;5031853;28;20034;-47
2023/10/03 05:27:55;;;;;;;8.55;2.80;;;;;;;22.22;69.05;100891.06;5031669;28;20041;-43
2023/10/03 05:30:23;;;;;;;10.35;3.00;;;;;;;22.17;69.84;100901.84;5032440;28;20108;-48
2023/10/03 05:32:48;;;;;;;9.68;2.80;;;;;;;21.79;72.23;100895.09;5031335;28;20763;-46
2023/10/03 05:35:13;;;;;;;8.75;3.00;;;;;;;21.91;73.09;100908.91;5030557;28;20128;-44
2023/10/03 05:37:42;;;;;;;8.18;2.80;;;;;;;21.84;72.89;100930.31;5031963;28;20037;-45
2023/10/03 05:40:20;;;;;;;5.93;2.22;;;;;;;21.55;72.24;100940.13;5031092;28;20045;-45
2023/10/03 05:42:47;;;;;;;6.85;2.25;;;;;;;21.42;72.83;100934.31;5031747;28;20079;-46
2023/10/03 05:45:13;;;;;;;7.13;2.10;;;;;;;21.25;72.49;100932.19;5030946;28;20029;-47
2023/10/03 05:47:40;;;;;;;7.50;2.30;;;;;;;21.58;71.56;100945.34;5031871;28;20034;-47
2023/10/03 05:50:09;;;;;;;5.60;1.90;;;;;;;21.43;72.14;100959.94;5031210;28;20041;-45
2023/10/03 05:52:34;;;;;;;4.93;1.80;;;;;;;21.41;71.44;100941.41;5029980;28;20103;-45
2023/10/03 05:54:59;;;;;;;5.00;1.77;;;;;;;21.73;70.13;100944.84;5031307;28;20026;-43
2023/10/03 05:57:25;;;;;;;7.28;1.90;;;;;;;21.91;70.01;100936.31;5031354;28;20424;-43
2023/10/03 05:59:50;;;;;;;5.28;1.70;;;;;;;21.43;70.11;100946.66;5030998;28;20056;-45
2023/10/03 06:02:15;;;;;;;6.57;1.80;;;;;;;21.52;69.47;100964.09;5031239;28;20037;-47
2023/10/03 06:04:40;;;;;;;5.13;1.50;;;;;;;21.49;68.75;100950.91;5031165;28;20448;-50
2023/10/03 06:07:06;;;;;;;4.20;1.40;;;;;;;21.42;69.96;100969.66;5030503;28;20037;-47
2023/10/03 06:09:32;;;;;;;6.75;1.58;;;;;;;21.68;69.36;100986.59;5031348;28;20029;-45
2023/10/03 06:11:57;;;;;;;6.25;1.58;;;;;;;21.73;70.12;100977.56;5030563;28;20041;-46
2023/10/03 06:14:23;;;;;;;7.57;1.80;;;;;;;21.36;70.99;100977.81;5031522;28;20029;-43
2023/10/03 06:16:48;;;;;;;6.68;1.80;;;;;;;21.68;71.03;100989.25;5030962;28;20037;-46
2023/10/03 06:19:13;;;;;;;9.23;1.88;;;;;;;21.41;72.77;101001.53;5031446;28;20381;-43
2023/10/03 06:21:39;;;;;;;10.07;1.90;;;;;;;21.40;72.55;101007.78;5031006;28;20030;-46
2023/10/03 06:24:05;;;;;;;7.70;2.08;;;;;;;21.58;72.63;101027.59;5030859;28;20082;-45
2023/10/03 06:26:30;;;;;;;9.55;2.08;;;;;;;21.48;73.77;101032.28;5030777;28;20044;-48
2023/10/03 06:28:56;;;;;;;6.40;1.65;;;;;;;21.37;75.08;101024.63;5030414;28;20037;-43
2023/10/03 06:31:21;;;;;;;8.75;2.03;;;;;;;21.12;76.08;101042.09;5031143;28;20033;-43
2023/10/03 06:33:47;;;;;;;6.05;1.63;;;;;;;21.25;75.50;101032.94;5031634;28;20037;-46
2023/10/03 06:36:12;;;;;;;7.13;1.80;;;;;;;21.26;75.93;101037.34;5030350;28;20575;-44
2023/10/03 06:38:38;;;;;;;12.10;2.20;;;;;;;21.16;76.55;101037.66;5030542;28;20052;-45
2023/10/03 06:41:05;;;;;;;8.63;1.88;;;;;;;20.77;77.47;101045.69;5030258;28;20037;-44
2023/10/03 06:43:31;;;;;;;7.45;1.67;;;;;;;20.81;76.35;101052.66;5028940;28;20109;-44
2023/10/03 06:45:56;;;;;;;6.53;1.80;;;;;;;20.61;76.61;101068.22;5030412;28;20041;-43
2023/10/03 06:48:23;;;;;;;6.18;1.25;;;;;;;20.64;77.14;101062.81;5030801;28;20036;-45
2023/10/03 06:50:49;;;;;;;5.35;1.50;;;;;;;20.74;77.57;101071.41;5030019;28;20033;-43
2023/10/03 06:53:16;;;;;;;7.97;1.67;;;;;;;20.45;78.39;101088.88;5030898;28;20415;-45
2023/10/03 06:55:41;;;;;;;4.63;1.30;;;;;;;20.36;78.97;101109.41;5030561;28;20103;-45
2023/10/03 06:58:06;;;;;;;5.50;1.10;;;;;;;20.36;79.51;101125.31;5029490;28;20038;-47
2023/10/03 07:00:32;;;;;;;4.60;1.00;;;;;;;20.25;79.59;101117.56;5030061;28;20127;-45
2023/10/03 07:02:58;;;;;;;5.53;0.93;;;;;;;19.99;80.33;101127.88;5029400;28;20037;-44
2023/10/03 07:05:24;;;;;;;3.75;0.88;;;;;;;19.88;80.84;101146.63;5030035;28;20108;-45
2023/10/03 07:07:49;;;;;;;4.80;1.08;;;;;;;19.95;80.59;101149.97;5029375;28;20117;-45
2023/10/03 07:10:15;;;;;;;6.35;1.10;;;;;;;19.95;80.73;101142.91;5029988;28;20108;-44
2023/10/03 07:12:40;;;;;;;5.13;1.00;;;;;;;20.20;80.47;101151.19;5029671;28;20041;-49
2023/10/03 07:15:11;;;;;;;7.15;1.10;;;;;;;20.01;80.60;101148.06;5029353;28;20116;-43
2023/10/03 07:17:37;;;;;;;4.45;0.90;;;;;;;20.07;80.46;101157.66;5029918;28;20087;-42
2023/10/03 07:20:04;;;;;;;4.38;0.85;;;;;;;19.72;80.40;101177.78;5029390;28;20527;-43
2023/10/03 07:22:30;;;;;;;4.13;1.10;;;;;;;20.31;78.48;101186.25;5029451;28;20088;-44
2023/10/03 07:24:56;;;;;;;4.40;1.10;;;;;;;20.53;77.71;101192.00;5028858;28;20026;-44
2023/10/03 07:27:21;;;;;;;5.03;0.90;;;;;;;20.34;77.61;101195.97;5029642;28;20033;-46
2023/10/03 07:29:47;;;;;;;8.82;1.40;;;;;;;19.98;79.03;101187.84;5029604;28;20483;-44
2023/10/03 07:32:13;;;;;;;6.32;1.00;;;;;;;19.87;79.81;101195.13;5028840;28;20096;-43
2023/10/03 07:34:46;;;;;;;4.88;0.93;;;;;;;19.84;78.54;101208.41;5029544;28;20411;-43
2023/10/03 07:37:15;;;;;;;4.88;1.10;;;;;;;19.54;78.23;101211.63;5028936;28;20032;-45
2023/10/03 07:39:41;;;;;;;4.80;0.90;;;;;;;19.68;77.11;101207.84;5029427;28;20048;-41
2023/10/03 07:42:07;;;;;;;4.80;0.90;;;;;;;19.72;77.07;101209.53;5028747;28;20037;-43
2023/10/03 07:44:33;;;;;;;7.18;1.05;;;;;;;19.82;76.93;101211.09;5029287;28;20059;-44
2023/10/03 07:46:58;;;;;;;3.13;0.70;;;;;;;19.85;76.74;101218.97;5029191;28;20476;-42
2023/10/03 07:49:24;;;;;;;7.38;0.95;;;;;;;20.10;75.56;101239.66;5029603;28;20417;-43
2023/10/03 07:51:53;;;;;;;4.35;0.82;;;;;;;20.18;74.69;101243.03;5028922;28;20059;-44
2023/10/03 07:54:19;;;;;;;4.82;0.90;;;;;;;20.23;74.67;101271.16;5029287;28;20041;-43
2023/10/03 07:56:44;;;;;;;3.35;0.98;;;;;;;19.64;76.90;101295.22;5028839;28;20042;-45
2023/10/03 07:59:10;;;;;;;2.97;0.70;;;;;;;19.69;77.55;101301.31;5028872;28;20034;-42
2023/10/03 08:01:38;;;;;;;2.75;0.70;;;;;;;19.73;77.19;101289.75;5031412;28;20183;-41
2023/10/03 08:04:08;;;;;;;3.22;0.60;;;;;;;19.54;78.05;101304.19;5033577;28;20044;-43
2023/10/03 08:06:34;;;;;;;1.42;0.57;;;;;;;19.55;78.51;101311.22;5033958;28;20056;-41
2023/10/03 08:09:00;;;;;;;3.10;0.70;;;;;;;19.26;79.35;101316.97;5032938;28;20037;-42
2023/10/03 08:11:31;;;;;;;2.90;0.80;;;;;;;19.34;79.49;101336.19;5033063;28;20038;-43
2023/10/03 08:13:57;;;;;;;2.70;0.65;;;;;;;19.10;79.68;101331.28;5033028;28;20171;-45
2023/10/03 08:16:22;;;;;;;2.75;0.70;;;;;;;19.39;78.96;101321.16;5033215;28;20569;-43
2023/10/03 08:18:57;;;;;;;2.05;0.50;;;;;;;19.20;79.69;101328.50;5033581;28;20037;-43
2023/10/03 08:21:29;;;;;;;3.35;0.85;;;;;;;18.77;80.08;101348.47;5033354;28;20034;-42
2023/10/03 08:23:56;;;;;;;4.57;0.65;;;;;;;19.17;80.05;101354.97;5033631;28;20066;-45
2023/10/03 08:26:22;;;;;;;3.28;0.55;;;;;;;19.15;79.97;101362.03;5033644;28;20033;-44
2023/10/03 08:28:59;;;;;;;4.43;0.75;;;;;;;19.36;79.47;101363.50;5033194;28;20048;-46
2023/10/03 08:31:27;;;;;;;3.28;0.80;;;;;;;19.55;78.64;101374.72;5033204;28;20038;-44
2023/10/03 08:33:55;;;;;;;3.17;0.75;;;;;;;19.70;78.12;101375.31;5033223;28;20045;-45
2023/10/03 08:36:22;;;;;;;4.80;0.80;;;;;;;19.76;78.75;101377.88;5033944;28;20130;-41
2023/10/03 08:38:48;;;;;;;4.10;0.80;;;;;;;19.49;79.27;101386.25;5033590;28;20034;-49
2023/10/03 08:41:22;;;;;;;7.07;1.00;;;;;;;19.42;79.84;101398.66;5032603;28;20172;-44
2023/10/03 08:43:54;;;;;;;6.00;0.85;;;;;;;19.35;79.45;101393.47;5033134;28;20060;-44
2023/10/03 08:46:25;;;;;;;5.20;0.90;;;;;;;19.43;79.82;101387.19;5032325;28;20038;-43
2023/10/03 08:48:51;;;;;;;4.60;0.95;;;;;;;19.31;79.73;101389.13;5032893;28;20029;-43
2023/10/03 08:51:17;;;;;;;3.10;0.70;;;;;;;19.17;79.05;101404.31;5032926;28;20029;-44
2023/10/03 08:53:47;;;;;;;6.07;0.90;;;;;;;19.43;79.04;101411.00;5033070;28;20048;-43
2023/10/03 08:56:18;;;;;;;2.67;0.60;;;;;;;19.84;78.04;101418.31;5032647;28;20053;-44
2023/10/03 08:58:48;;;;;;;5.43;0.75;;;;;;;19.87;77.61;101425.34;5033002;28;20041;-44
2023/10/03 09:01:17;;;;;;;5.20;0.90;;;;;;;19.68;77.91;101419.47;5032653;28;20028;-42
2023/10/03 09:03:47;;;;;;;4.60;1.02;;;;;;;19.89;77.45;101435.88;5032647;28;20491;-46
2023/10/03 09:06:19;;;;;;;4.97;0.90;;;;;;;19.67;77.82;101449.47;5031782;28;20514;-44
2023/10/03 09:09:08;;;;;;;3.00;0.60;;;;;;;19.77;76.69;101463.41;5032452;28;20065;-45
2023/10/03 09:11:37;;;;;;;1.75;0.50;;;;;;;18.77;77.76;101467.34;5031547;28;20029;-45
2023/10/03 09:14:04;;;;;;;1.98;0.50;;;;;;;18.56;78.91;101474.59;5031564;28;20041;-44
2023/10/03 09:16:29;;;;;;;2.63;0.70;;;;;;;18.54;79.28;101472.84;5032115;28;20033;-42
2023/10/03 09:19:00;;;;;;;4.88;0.70;;;;;;;18.89;78.10;101478.66;5031521;28;20542;-43
2023/10/03 09:21:27;;;;;;;2.70;0.68;;;;;;;18.99;77.98;101488.22;5031960;28;20037;-47
2023/10/03 09:24:02;;;;;;;2.85;0.60;;;;;;;18.78;79.04;101485.84;5031548;28;20033;-45
2023/10/03 09:26:47;;;;;;;;;;;;;;;18.98;78.51;101497.03;5032938;28;20080;-45
2023/10/03 09:29:29;;;;;;;7.05;0.73;;;;;;;19.21;77.81;101498.56;5031132;28;19948;-46
2023/10/03 09:31:57;;;;;;;3.92;0.70;;;;;;;19.41;77.32;101501.81;5031144;28;20435;-46
2023/10/03 09:34:30;;;;;;;2.97;0.77;;;;;;;18.99;78.01;101508.47;5031541;28;20048;-45
2023/10/03 09:36:56;;;;;;;4.20;0.60;;;;;;;18.68;78.80;101517.63;5031195;28;20029;-43
2023/10/03 09:39:22;;;;;;;2.83;0.70;;;;;;;18.65;79.01;101518.53;5031615;28;20128;-44
2023/10/03 09:41:54;;;;;;;4.28;0.70;;;;;;;18.74;78.24;101522.84;5030299;28;20125;-43
2023/10/03 09:44:29;;;;;;;3.90;0.80;;;;;;;18.74;77.91;101530.75;5031297;28;20041;-45
2023/10/03 09:47:00;;;;;;;4.82;0.68;;;;;;;18.87;77.80;101535.91;5031104;28;20076;-41
2023/10/03 09:49:36;;;;;;;2.85;0.60;;;;;;;18.58;79.65;101543.25;5031551;28;20132;-44
2023/10/03 09:52:22;;;;;;;3.45;0.88;;;;;;;18.72;79.16;101551.06;5030763;28;20121;-46
2023/10/03 09:54:59;;;;;;;3.50;0.90;;;;;;;18.69;79.82;101556.34;5030363;28;20450;-39
2023/10/03 09:57:28;;;;;;;3.08;0.82;;;;;;;18.48;81.01;101552.97;5031637;28;20053;-43
2023/10/03 09:59:54;;;;;;;3.83;1.00;;;;;;;19.24;78.05;101554.00;5031200;28;20033;-45
2023/10/03 10:02:30;;;;;;;3.38;1.05;;;;;;;18.94;78.91;101558.75;5030912;28;20059;-47
2023/10/03 10:04:59;;;;;;;6.82;1.42;;;;;;;19.05;78.83;101553.34;5030603;28;20034;-44
2023/10/03 10:07:50;;;;;;;4.25;1.10;;;;;;;19.10;78.92;101548.00;5031009;28;20116;-43
2023/10/03 10:10:19;;;;;;;3.80;1.10;;;;;;;19.00;79.77;101557.81;5030646;28;20037;-46
2023/10/03 10:13:13;;;;;;;4.57;1.30;;;;;;;19.30;78.88;101551.31;5030799;28;20032;-44
2023/10/03 10:16:15;;;;;;;5.72;1.48;;;;;;;19.23;78.99;101560.19;5030878;28;20034;-40
2023/10/03 10:18:43;;;;;;;6.65;1.40;;;;;;;18.90;78.85;101564.09;5029371;28;20041;-44
2023/10/03 10:21:22;;;;;;;5.25;1.27;;;;;;;19.25;78.87;101571.63;5029992;28;20099;-46
2023/10/03 10:24:15;;;;;;;5.30;1.85;;;;;;;19.10;77.47;101569.16;5029968;28;20037;-45
2023/10/03 10:26:48;;;;;;;7.88;1.55;;;;;;;19.18;77.31;101575.22;5030396;28;20228;-44
2023/10/03 10:29:19;;;;;;;6.77;1.53;;;;;;;18.99;77.20;101595.69;5030501;28;20034;-48
2023/10/03 10:31:49;;;;;;;5.97;1.48;;;;;;;18.64;78.16;101603.94;5029034;28;20279;-41
2023/10/03 10:34:21;;;;;;;7.63;1.60;;;;;;;18.19;78.68;101619.16;5030593;28;20068;-45
2023/10/03 10:37:15;;;;;;;6.68;1.70;;;;;;;17.77;81.03;101624.66;5032099;28;20049;-43
2023/10/03 10:40:17;;;;;;;4.05;1.40;;;;;;;18.04;79.75;101624.56;5031148;28;20045;-44
2023/10/03 10:42:59;;;;;;;4.53;1.55;;;;;;;18.09;79.56;101635.97;5030542;28;20041;-46
2023/10/03 10:45:24;;;;;;;6.68;1.45;;;;;;;18.01;79.90;101640.38;5030955;28;20034;-44
2023/10/03 10:47:51;;;;;;;5.85;1.55;;;;;;;17.82;80.04;101644.88;5030274;28;20040;-40
2023/10/03 10:50:17;;;;;;;9.25;1.58;;;;;;;17.80;79.88;101656.31;5030578;28;20037;-43
2023/10/03 10:52:57;;;;;;;8.25;1.63;;;;;;;17.84;79.71;101664.22;5030087;28;20038;-44
2023/10/03 10:55:24;;;;;;;8.98;1.63;;;;;;;18.01;79.30;101671.16;5029807;28;20037;-48
2023/10/03 10:58:12;;;;;;;6.57;1.65;;;;;;;18.15;78.71;101675.50;5029820;28;20026;-43
2023/10/03 11:00:38;;;;;;;6.65;1.60;;;;;;;18.13;78.99;101689.59;5030463;28;20047;-43
2023/10/03 11:03:05;;;;;;;5.10;1.63;;;;;;;18.05;78.90;101691.41;5029645;28;20040;-47
2023/10/03 11:05:52;;;;;;;9.23;1.65;;;;;;;17.92;78.81;101697.59;5030279;28;20033;-44
2023/10/03 11:08:18;;;;;;;6.22;1.40;;;;;;;17.73;79.70;101708.22;5029985;28;20029;-43
2023/10/03 11:10:54;;;;;;;5.55;1.40;;;;;;;18.11;78.54;101712.50;5030138;28;20033;-44
2023/10/03 11:13:23;;;;;;;6.45;1.55;;;;;;;18.16;78.72;101716.84;5029685;28;20053;-43
2023/10/03 11:15:50;;;;;;;7.10;1.85;;;;;;;18.12;78.92;101716.84;5030590;28;20088;-46
2023/10/03 11:18:17;;;;;;;6.35;1.77;;;;;;;18.03;80.06;101714.28;5029989;28;20037;-43
2023/10/03 11:20:43;;;;;;;9.25;1.85;;;;;;;18.15;80.18;101723.00;5030127;28;20037;-44
2023/10/03 11:23:16;;;;;;;7.72;1.60;;;;;;;18.33;80.26;101721.16;5029306;28;20106;-48
2023/10/03 11:25:56;;;;;;;4.50;1.70;;;;;;;18.52;79.05;101728.09;5029570;28;20064;-51
2023/10/03 11:28:22;;;;;;;8.07;1.90;;;;;;;18.92;79.52;101729.63;5029375;28;20037;-44
2023/10/03 11:31:01;;;;;;;7.15;1.50;;;;;;;18.93;77.76;101727.88;5029451;28;20029;-44